createdAt,value
2022-09-20T00:00:59.977Z,10.7
2022-09-20T00:01:57.521Z,10.6
2022-09-20T00:02:57.659Z,10.6
2022-09-20T00:03:57.782Z,10.7
2022-09-20T00:04:57.442Z,10.5
2022-09-20T00:06:01.388Z,10.5
2022-09-20T00:06:57.431Z,10.4
2022-09-20T00:08:08.635Z,10.4
2022-09-20T00:08:57.632Z,10.3
2022-09-20T00:09:57.525Z,10.4
2022-09-20T00:11:03.028Z,10.3
2022-09-20T00:11:57.578Z,10.3
2022-09-20T00:13:00.416Z,10.4
2022-09-20T00:13:57.611Z,10.4
2022-09-20T00:14:57.798Z,10.3
2022-09-20T00:15:58.446Z,10.3
2022-09-20T00:16:57.817Z,10.2
2022-09-20T00:17:57.854Z,10.3
2022-09-20T00:19:05.594Z,10.4
2022-09-20T00:19:57.883Z,10.3
2022-09-20T00:20:57.884Z,10.2
2022-09-20T00:22:09.516Z,10.2
2022-09-20T00:22:57.940Z,10.2
2022-09-20T00:24:00.837Z,10.1
2022-09-20T00:25:17.063Z,10.1
2022-09-20T00:26:13.185Z,10.2
2022-09-20T00:26:58.124Z,10.3
2022-09-20T00:27:58.114Z,10.3
2022-09-20T00:28:58.197Z,10.4
2022-09-20T00:29:58.182Z,10.3
2022-09-20T00:31:24.597Z,10.3
2022-09-20T00:32:10.070Z,10.3
2022-09-20T00:33:03.573Z,10.3
2022-09-20T00:33:58.226Z,10.3
2022-09-20T00:34:58.243Z,10.3
2022-09-20T00:35:58.349Z,10.4
2022-09-20T00:36:58.374Z,10.4
2022-09-20T00:38:03.327Z,10.4
2022-09-20T00:38:58.613Z,10.4
2022-09-20T00:40:01.075Z,10.4
2022-09-20T00:40:58.919Z,10.4
2022-09-20T00:41:58.508Z,10.3
2022-09-20T00:42:58.563Z,10.4
2022-09-20T00:43:58.535Z,10.5
2022-09-20T00:44:58.693Z,10.5
2022-09-20T00:45:58.633Z,10.5
2022-09-20T00:46:58.864Z,10.5
2022-09-20T00:47:58.668Z,10.5
2022-09-20T00:48:59.223Z,10.5
2022-09-20T00:49:58.687Z,10.6
2022-09-20T00:50:58.756Z,10.5
2022-09-20T00:52:00.302Z,10.6
2022-09-20T00:52:58.928Z,10.5
2022-09-20T00:53:59.077Z,10.5
2022-09-20T00:55:00.566Z,10.6
2022-09-20T00:55:59.315Z,10.5
2022-09-20T00:56:59.619Z,10.5
2022-09-20T00:57:59.343Z,10.4
2022-09-20T00:58:59.705Z,10.5
2022-09-20T00:59:59.612Z,10.6
2022-09-20T01:01:08.509Z,10.6
2022-09-20T01:01:59.851Z,10.5
2022-09-20T01:02:59.945Z,10.5
2022-09-20T01:03:59.999Z,10.5
2022-09-20T01:04:59.906Z,10.5
2022-09-20T01:06:01.001Z,10.4
2022-09-20T01:07:02.770Z,10.4
2022-09-20T01:08:00.162Z,10.4
2022-09-20T01:09:00.126Z,10.4
2022-09-20T01:10:00.267Z,10.5
2022-09-20T01:11:00.188Z,10.6
2022-09-20T01:12:05.084Z,10.7
2022-09-20T01:13:00.050Z,10.6
2022-09-20T01:14:00.203Z,10.7
2022-09-20T01:15:00.187Z,10.8
2022-09-20T01:16:18.530Z,10.8
2022-09-20T01:17:00.339Z,10.8
2022-09-20T01:18:01.998Z,10.7
2022-09-20T01:19:32.418Z,10.6
2022-09-20T01:20:02.960Z,10.7
2022-09-20T01:21:00.808Z,10.7
2022-09-20T01:22:07.294Z,10.7
2022-09-20T01:23:00.659Z,10.7
2022-09-20T01:24:06.665Z,10.6
2022-09-20T01:25:00.423Z,10.6
2022-09-20T01:26:05.498Z,10.6
2022-09-20T01:27:01.453Z,10.6
2022-09-20T01:28:06.169Z,10.5
2022-09-20T01:29:00.953Z,10.5
2022-09-20T01:30:02.127Z,10.4
2022-09-20T01:31:00.742Z,10.4
2022-09-20T01:32:00.992Z,10.3
2022-09-20T01:33:00.736Z,10.4
2022-09-20T01:34:03.365Z,10.4
2022-09-20T01:35:00.907Z,10.4
2022-09-20T01:36:01.573Z,10.4
2022-09-20T01:37:00.810Z,10.4
2022-09-20T01:38:02.142Z,10.4
2022-09-20T01:39:11.069Z,10.3
2022-09-20T01:40:01.365Z,10.5
2022-09-20T01:41:00.938Z,10.5
2022-09-20T01:42:01.374Z,10.6
2022-09-20T01:43:06.088Z,10.7
2022-09-20T01:44:01.421Z,10.6
2022-09-20T01:45:03.451Z,10.6
2022-09-20T01:46:31.925Z,10.5
2022-09-20T01:47:01.668Z,10.6
2022-09-20T01:49:28.013Z,10.5
2022-09-20T01:49:36.435Z,10.6
2022-09-20T01:50:12.893Z,10.5
2022-09-20T01:51:01.448Z,10.5
2022-09-20T01:52:23.241Z,10.5
2022-09-20T01:53:01.444Z,10.5
2022-09-20T01:54:20.110Z,10.6
2022-09-20T01:55:06.399Z,10.7
2022-09-20T01:56:07.055Z,10.7
2022-09-20T01:57:09.965Z,10.7
2022-09-20T01:58:29.775Z,10.6
2022-09-20T01:59:22.373Z,10.7
2022-09-20T02:00:14.324Z,10.7
2022-09-20T02:01:37.805Z,10.8
2022-09-20T02:02:14.892Z,10.8
2022-09-20T02:03:02.273Z,10.7
2022-09-20T02:04:03.335Z,10.6
2022-09-20T02:05:02.293Z,10.6
2022-09-20T02:06:25.229Z,10.7
2022-09-20T02:07:02.637Z,10.6
2022-09-20T02:08:16.312Z,10.6
2022-09-20T02:09:02.073Z,10.5
2022-09-20T02:10:08.316Z,10.6
2022-09-20T02:11:02.755Z,10.6
2022-09-20T02:12:13.893Z,10.6
2022-09-20T02:13:04.367Z,10.7
2022-09-20T02:14:19.953Z,10.7
2022-09-20T02:15:02.944Z,10.7
2022-09-20T02:16:11.625Z,10.7
2022-09-20T02:17:03.326Z,10.5
2022-09-20T02:18:17.939Z,10.4
2022-09-20T02:19:50.188Z,10.5
2022-09-20T02:20:12.633Z,10.6
2022-09-20T02:21:07.991Z,10.7
2022-09-20T02:22:20.699Z,10.7
2022-09-20T02:23:26.038Z,10.7
2022-09-20T02:24:19.449Z,10.6
2022-09-20T02:25:02.973Z,10.6
2022-09-20T02:26:15.575Z,10.6
2022-09-20T02:27:03.092Z,10.5
2022-09-20T02:28:18.424Z,10.5
2022-09-20T02:29:03.495Z,10.5
2022-09-20T02:30:17.963Z,10.6
2022-09-20T02:31:09.538Z,10.5
2022-09-20T02:32:24.605Z,10.5
2022-09-20T02:33:03.326Z,10.6
2022-09-20T02:34:11.953Z,10.6
2022-09-20T02:35:03.797Z,10.7
2022-09-20T02:36:33.652Z,10.8
2022-09-20T02:37:04.898Z,10.7
2022-09-20T02:38:24.064Z,10.7
2022-09-20T02:39:03.407Z,10.7
2022-09-20T02:40:11.641Z,10.6
2022-09-20T02:41:03.758Z,10.6
2022-09-20T02:42:19.226Z,10.6
2022-09-20T02:43:08.793Z,10.5
2022-09-20T02:44:18.393Z,10.5
2022-09-20T02:45:03.799Z,10.5
2022-09-20T02:46:31.818Z,10.5
2022-09-20T02:47:04.060Z,10.4
2022-09-20T02:48:23.105Z,10.4
2022-09-20T02:49:04.057Z,10.5
2022-09-20T02:50:20.792Z,10.4
2022-09-20T02:51:04.080Z,10.4
2022-09-20T02:52:29.950Z,10.4
2022-09-20T02:53:04.971Z,10.4
2022-09-20T02:54:23.202Z,10.5
2022-09-20T02:55:18.799Z,10.4
2022-09-20T02:56:16.178Z,10.5
2022-09-20T02:57:04.217Z,10.5
2022-09-20T02:58:11.601Z,10.5
2022-09-20T02:59:04.037Z,10.5
2022-09-20T03:00:06.282Z,10.5
2022-09-20T03:01:15.658Z,10.5
2022-09-20T03:02:05.823Z,10.4
2022-09-20T03:03:04.571Z,10.5
2022-09-20T03:04:26.614Z,10.4
2022-09-20T03:05:04.281Z,10.4
2022-09-20T03:06:04.578Z,10.4
2022-09-20T03:07:04.590Z,10.4
2022-09-20T03:08:04.466Z,10.4
2022-09-20T03:09:04.471Z,10.4
2022-09-20T03:10:05.059Z,10.4
2022-09-20T03:11:04.645Z,10.5
2022-09-20T03:12:04.537Z,10.5
2022-09-20T03:13:29.103Z,10.5
2022-09-20T03:14:04.923Z,10.5
2022-09-20T03:15:04.674Z,10.5
2022-09-20T03:16:16.400Z,10.6
2022-09-20T03:17:04.817Z,10.6
2022-09-20T03:18:04.937Z,10.5
2022-09-20T03:19:37.511Z,10.5
2022-09-20T03:20:05.383Z,10.4
2022-09-20T03:21:10.133Z,10.4
2022-09-20T03:22:23.836Z,10.4
2022-09-20T03:23:05.322Z,10.4
2022-09-20T03:24:05.625Z,10.4
2022-09-20T03:25:35.554Z,10.5
2022-09-20T03:26:06.818Z,10.6
2022-09-20T03:27:05.520Z,10.6
2022-09-20T03:28:34.490Z,10.5
2022-09-20T03:29:07.007Z,10.4
2022-09-20T03:30:05.916Z,10.5
2022-09-20T03:31:32.961Z,10.6
2022-09-20T03:32:06.114Z,10.5
2022-09-20T03:33:06.078Z,10.5
2022-09-20T03:34:37.959Z,10.5
2022-09-20T03:35:25.218Z,10.6
2022-09-20T03:36:05.880Z,10.6
2022-09-20T03:37:08.288Z,10.5
2022-09-20T03:38:06.102Z,10.5
2022-09-20T03:39:06.241Z,10.5
2022-09-20T03:40:08.354Z,10.5
2022-09-20T03:41:19.159Z,10.5
2022-09-20T03:42:06.468Z,10.6
2022-09-20T03:43:15.349Z,10.6
2022-09-20T03:44:06.286Z,10.4
2022-09-20T03:45:16.291Z,10.4
2022-09-20T03:46:06.586Z,10.4
2022-09-20T03:47:21.286Z,10.3
2022-09-20T03:48:06.431Z,10.3
2022-09-20T03:49:23.137Z,10.4
2022-09-20T03:50:06.834Z,10.5
2022-09-20T03:51:23.749Z,10.5
2022-09-20T03:52:06.428Z,10.4
2022-09-20T03:53:32.170Z,10.5
2022-09-20T03:54:06.873Z,10.4
2022-09-20T03:55:24.656Z,10.5
2022-09-20T03:56:25.279Z,10.4
2022-09-20T03:57:32.252Z,10.4
2022-09-20T03:58:09.055Z,10.4
2022-09-20T03:59:17.107Z,10.4
2022-09-20T04:00:06.789Z,10.5
2022-09-20T04:01:40.405Z,10.5
2022-09-20T04:02:11.716Z,10.4
2022-09-20T04:03:17.968Z,10.4
2022-09-20T04:04:06.888Z,10.4
2022-09-20T04:05:41.786Z,10.4
2022-09-20T04:06:25.209Z,10.4
2022-09-20T04:07:06.997Z,10.4
2022-09-20T04:08:35.699Z,10.5
2022-09-20T04:09:07.162Z,10.5
2022-09-20T04:10:07.331Z,10.5
2022-09-20T04:12:04.460Z,10.4
2022-09-20T04:12:59.718Z,10.5
2022-09-20T04:13:19.130Z,10.6
2022-09-20T04:16:45.830Z,10.3
2022-09-20T04:18:07.266Z,10.3
2022-09-20T04:19:30.908Z,10.4
2022-09-20T04:20:27.719Z,10.3
2022-09-20T04:20:39.628Z,10.3
2022-09-20T04:21:30.574Z,10.4
2022-09-20T04:22:10.873Z,10.4
2022-09-20T04:24:03.534Z,10.4
2022-09-20T04:24:15.940Z,10.4
2022-09-20T04:26:35.787Z,10.3
2022-09-20T04:27:32.345Z,10.4
2022-09-20T04:27:50.034Z,10.4
2022-09-20T04:28:12.702Z,10.5
2022-09-20T04:29:07.789Z,10.4
2022-09-20T04:31:35.600Z,10.4
2022-09-20T04:34:33.477Z,10.5
2022-09-20T04:34:58.985Z,10.5
2022-09-20T04:35:39.172Z,10.6
2022-09-20T04:36:08.501Z,10.5
2022-09-20T04:37:08.723Z,10.5
2022-09-20T04:38:18.669Z,10.4
2022-09-20T04:39:09.562Z,10.4
2022-09-20T04:40:08.640Z,10.4
2022-09-20T04:41:14.974Z,10.4
2022-09-20T04:42:10.683Z,10.4
2022-09-20T04:43:26.701Z,10.4
2022-09-20T04:44:09.649Z,10.4
2022-09-20T04:45:08.953Z,10.5
2022-09-20T04:47:01.683Z,10.5
2022-09-20T04:49:01.795Z,10.4
2022-09-20T04:49:05.641Z,10.4
2022-09-20T04:49:13.415Z,10.3
2022-09-20T04:50:23.782Z,10.3
2022-09-20T04:51:10.537Z,10.3
2022-09-20T04:52:09.165Z,10.3
2022-09-20T04:53:09.025Z,10.3
2022-09-20T04:54:09.108Z,10.3
2022-09-20T04:55:09.231Z,10.2
2022-09-20T04:56:09.178Z,10.1
2022-09-20T04:57:09.219Z,10.2
2022-09-20T04:58:09.271Z,10.2
2022-09-20T04:59:10.847Z,10.2
2022-09-20T05:00:14.248Z,10.1
2022-09-20T05:01:16.005Z,10.2
2022-09-20T05:02:09.938Z,10.3
2022-09-20T05:03:09.371Z,10.2
2022-09-20T05:04:12.545Z,10.2
2022-09-20T05:05:19.439Z,10.3
2022-09-20T05:06:09.676Z,10.3
2022-09-20T05:07:09.443Z,10.3
2022-09-20T05:08:09.653Z,10.3
2022-09-20T05:09:09.730Z,10.3
2022-09-20T05:10:09.666Z,10.4
2022-09-20T05:11:10.941Z,10.5
2022-09-20T05:12:10.005Z,10.4
2022-09-20T05:13:09.935Z,10.4
2022-09-20T05:14:09.829Z,10.4
2022-09-20T05:15:10.746Z,10.3
2022-09-20T05:16:09.878Z,10.3
2022-09-20T05:17:13.463Z,10.3
2022-09-20T05:18:09.800Z,10.3
2022-09-20T05:19:10.014Z,10.4
2022-09-20T05:20:09.926Z,10.4
2022-09-20T05:21:09.942Z,10.3
2022-09-20T05:22:10.473Z,10.3
2022-09-20T05:23:12.445Z,10.3
2022-09-20T05:24:10.828Z,10.3
2022-09-20T05:25:10.125Z,10.4
2022-09-20T05:26:15.087Z,10.4
2022-09-20T05:27:10.191Z,10.3
2022-09-20T05:28:10.541Z,10.3
2022-09-20T05:29:10.343Z,10.3
2022-09-20T05:30:10.282Z,10.3
2022-09-20T05:31:10.568Z,10.3
2022-09-20T05:32:10.314Z,10.4
2022-09-20T05:33:10.591Z,10.4
2022-09-20T05:34:10.323Z,10.3
2022-09-20T05:35:10.439Z,10.3
2022-09-20T05:36:10.813Z,10.3
2022-09-20T05:37:10.551Z,10.4
2022-09-20T05:38:21.347Z,10.4
2022-09-20T05:39:10.606Z,10.4
2022-09-20T05:40:11.025Z,10.4
2022-09-20T05:41:10.901Z,10.4
2022-09-20T05:42:10.828Z,10.4
2022-09-20T05:43:10.921Z,10.4
2022-09-20T05:44:10.945Z,10.4
2022-09-20T05:45:11.196Z,10.4
2022-09-20T05:46:11.268Z,10.4
2022-09-20T05:47:11.168Z,10.5
2022-09-20T05:48:11.222Z,10.5
2022-09-20T05:49:11.289Z,10.5
2022-09-20T05:50:11.344Z,10.5
2022-09-20T05:51:11.698Z,10.6
2022-09-20T05:52:11.803Z,10.6
2022-09-20T05:53:11.549Z,10.6
2022-09-20T05:54:18.887Z,10.6
2022-09-20T05:55:12.386Z,10.6
2022-09-20T05:56:11.955Z,10.5
2022-09-20T05:57:13.682Z,10.5
2022-09-20T05:58:12.111Z,10.6
2022-09-20T05:59:12.252Z,10.6
2022-09-20T06:00:12.176Z,10.6
2022-09-20T06:01:13.459Z,10.7
2022-09-20T06:02:12.108Z,10.7
2022-09-20T06:03:15.445Z,10.7
2022-09-20T06:04:12.656Z,10.8
2022-09-20T06:05:12.426Z,10.9
2022-09-20T06:06:12.894Z,10.9
2022-09-20T06:07:12.779Z,10.8
2022-09-20T06:08:16.519Z,10.8
2022-09-20T06:09:12.481Z,10.8
2022-09-20T06:10:12.716Z,10.8
2022-09-20T06:11:13.380Z,10.8
2022-09-20T06:12:12.628Z,10.9
2022-09-20T06:13:12.623Z,11
2022-09-20T06:14:13.215Z,10.9
2022-09-20T06:15:12.777Z,10.8
2022-09-20T06:16:12.650Z,10.8
2022-09-20T06:17:19.831Z,10.8
2022-09-20T06:18:13.025Z,10.9
2022-09-20T06:19:13.078Z,11
2022-09-20T06:20:12.707Z,11
2022-09-20T06:21:15.439Z,10.9
2022-09-20T06:22:12.710Z,10.8
2022-09-20T06:23:13.078Z,10.8
2022-09-20T06:24:13.941Z,10.8
2022-09-20T06:25:13.489Z,10.9
2022-09-20T06:26:12.846Z,10.9
2022-09-20T06:27:18.682Z,10.8
2022-09-20T06:28:13.115Z,10.9
2022-09-20T06:29:17.924Z,10.9
2022-09-20T06:30:12.964Z,11
2022-09-20T06:31:13.119Z,10.9
2022-09-20T06:32:13.041Z,10.9
2022-09-20T06:33:18.053Z,10.9
2022-09-20T06:34:13.083Z,11
2022-09-20T06:35:13.180Z,10.9
2022-09-20T06:36:13.423Z,10.8
2022-09-20T06:37:13.444Z,10.9
2022-09-20T06:38:18.336Z,11
2022-09-20T06:39:13.242Z,11
2022-09-20T06:40:13.429Z,11.1
2022-09-20T06:41:13.288Z,11
2022-09-20T06:42:13.352Z,11.1
2022-09-20T06:43:13.395Z,11.2
2022-09-20T06:44:13.423Z,11.1
2022-09-20T06:45:18.840Z,11.1
2022-09-20T06:46:13.653Z,11.2
2022-09-20T06:47:13.640Z,11.3
2022-09-20T06:48:13.576Z,11.2
2022-09-20T06:49:13.628Z,11.1
2022-09-20T06:50:18.702Z,11.1
2022-09-20T06:51:13.874Z,11.1
2022-09-20T06:52:13.900Z,11.1
2022-09-20T06:53:14.162Z,11.1
2022-09-20T06:54:14.131Z,11.1
2022-09-20T06:55:14.073Z,11.1
2022-09-20T06:56:14.101Z,11.1
2022-09-20T06:57:14.292Z,11.1
2022-09-20T06:58:14.424Z,11.1
2022-09-20T06:59:19.349Z,11.2
2022-09-20T07:00:14.626Z,11.3
2022-09-20T07:01:14.514Z,11.4
2022-09-20T07:02:14.596Z,11.4
2022-09-20T07:03:14.793Z,11.3
2022-09-20T07:04:15.653Z,11.3
2022-09-20T07:05:14.674Z,11.3
2022-09-20T07:06:14.714Z,11.3
2022-09-20T07:07:14.763Z,11.3
2022-09-20T07:08:15.020Z,11.3
2022-09-20T07:09:14.853Z,11.3
2022-09-20T07:10:15.010Z,11.3
2022-09-20T07:11:15.896Z,11.4
2022-09-20T07:12:14.939Z,11.4
2022-09-20T07:13:20.384Z,11.3
2022-09-20T07:14:15.003Z,11.4
2022-09-20T07:15:15.290Z,11.3
2022-09-20T07:16:20.165Z,11.2
2022-09-20T07:17:22.260Z,11.1
2022-09-20T07:18:15.136Z,11.1
2022-09-20T07:19:15.455Z,11.2
2022-09-20T07:20:18.433Z,11.3
2022-09-20T07:21:15.465Z,11.3
2022-09-20T07:22:16.534Z,11.3
2022-09-20T07:23:15.536Z,11.3
2022-09-20T07:24:15.514Z,11.3
2022-09-20T07:25:15.688Z,11.3
2022-09-20T07:26:15.642Z,11.3
2022-09-20T07:27:20.413Z,11.3
2022-09-20T07:28:15.693Z,11.3
2022-09-20T07:29:15.619Z,11.3
2022-09-20T07:30:15.675Z,11.3
2022-09-20T07:31:15.642Z,11.3
2022-09-20T07:32:15.629Z,11.3
2022-09-20T07:33:16.697Z,11.4
2022-09-20T07:34:20.776Z,11.5
2022-09-20T07:35:16.696Z,11.5
2022-09-20T07:36:16.709Z,11.6
2022-09-20T07:37:36.941Z,11.8
2022-09-20T07:38:20.804Z,11.9
2022-09-20T07:39:15.902Z,11.8
2022-09-20T07:40:15.954Z,11.9
2022-09-20T07:41:15.893Z,12
2022-09-20T07:42:16.055Z,11.9
2022-09-20T07:43:20.974Z,11.8
2022-09-20T07:44:15.964Z,12
2022-09-20T07:45:21.192Z,12.1
2022-09-20T07:46:21.029Z,12
2022-09-20T07:47:16.250Z,11.9
2022-09-20T07:48:16.100Z,11.9
2022-09-20T07:49:22.146Z,11.9
2022-09-20T07:50:16.113Z,11.8
2022-09-20T07:51:16.467Z,11.9
2022-09-20T07:52:16.593Z,11.9
2022-09-20T07:53:17.497Z,12.1
2022-09-20T07:54:17.337Z,12.2
2022-09-20T07:55:16.337Z,12.3
2022-09-20T07:56:16.395Z,12.3
2022-09-20T07:57:16.906Z,12.4
2022-09-20T07:58:16.415Z,12.6
2022-09-20T07:59:17.735Z,12.7
2022-09-20T08:00:16.876Z,12.7
2022-09-20T08:01:21.842Z,12.8
2022-09-20T08:02:17.104Z,13.1
2022-09-20T08:03:16.670Z,13
2022-09-20T08:04:17.231Z,12.9
2022-09-20T08:05:17.551Z,13
2022-09-20T08:06:16.903Z,13
2022-09-20T08:07:16.976Z,13.2
2022-09-20T08:08:17.324Z,13
2022-09-20T08:09:17.164Z,13.1
2022-09-20T08:10:17.433Z,13.2
2022-09-20T08:11:18.307Z,12.8
2022-09-20T08:14:17.579Z,12.4
2022-09-20T08:15:17.573Z,12.3
2022-09-20T08:16:17.817Z,12.4
2022-09-20T08:17:17.524Z,12.4
2022-09-20T08:18:17.803Z,12.3
2022-09-20T08:19:17.651Z,12.3
2022-09-20T08:20:17.969Z,12.5
2022-09-20T08:21:17.946Z,12.6
2022-09-20T08:22:17.977Z,12.6
2022-09-20T08:23:27.812Z,12.6
2022-09-20T08:24:17.892Z,12.8
2022-09-20T08:25:18.467Z,13
2022-09-20T08:26:18.066Z,12.9
2022-09-20T08:27:18.036Z,13
2022-09-20T08:28:17.935Z,13
2022-09-20T08:29:17.953Z,12.9
2022-09-20T08:30:18.256Z,12.9
2022-09-20T08:31:18.042Z,12.7
2022-09-20T08:32:18.189Z,12.6
2022-09-20T08:33:18.072Z,12.5
2022-09-20T08:34:23.331Z,12.5
2022-09-20T08:35:23.114Z,12.7
2022-09-20T08:36:18.259Z,12.8
2022-09-20T08:37:18.208Z,13.2
2022-09-20T08:40:18.555Z,13.5
2022-09-20T08:41:23.313Z,13.5
2022-09-20T08:42:18.348Z,13.8
2022-09-20T08:43:22.207Z,14
2022-09-20T08:44:18.548Z,14.2
2022-09-20T08:45:33.493Z,14.4
2022-09-20T08:46:23.187Z,14.7
2022-09-20T08:47:20.861Z,14.2
2022-09-20T08:48:18.568Z,14.1
2022-09-20T08:49:18.805Z,14.1
2022-09-20T08:50:23.628Z,13.8
2022-09-20T08:51:22.554Z,13.6
2022-09-20T08:52:18.678Z,13.5
2022-09-20T08:53:21.199Z,13.4
2022-09-20T08:54:19.974Z,13.2
2022-09-20T08:55:18.813Z,13.1
2022-09-20T08:56:19.067Z,13
2022-09-20T08:57:18.930Z,13.3
2022-09-20T08:58:18.877Z,13.4
2022-09-20T08:59:49.360Z,13.5
2022-09-20T09:00:19.189Z,13.9
2022-09-20T09:03:47.690Z,13.9
2022-09-20T09:04:01.589Z,13.9
2022-09-20T09:04:19.429Z,14.2
2022-09-20T09:05:19.160Z,14.6
2022-09-20T09:06:19.473Z,14.7
2022-09-20T09:07:20.225Z,14.8
2022-09-20T09:08:19.209Z,14.3
2022-09-20T09:09:19.242Z,13.9
2022-09-20T09:10:19.586Z,13.7
2022-09-20T09:11:24.303Z,13.4
2022-09-20T09:12:19.614Z,13.3
2022-09-20T09:13:19.490Z,13.3
2022-09-20T09:14:19.880Z,13.7
2022-09-20T09:15:19.990Z,14.5
2022-09-20T09:16:27.422Z,15
2022-09-20T09:17:19.998Z,15.2
2022-09-20T09:18:19.945Z,15.2
2022-09-20T09:19:19.961Z,15.5
2022-09-20T09:20:20.263Z,15.7
2022-09-20T09:21:20.069Z,15.6
2022-09-20T09:22:20.317Z,15.2
2022-09-20T09:23:21.056Z,15.3
2022-09-20T09:24:22.367Z,15.6
2022-09-20T09:25:20.818Z,15.6
2022-09-20T09:26:20.413Z,15.6
2022-09-20T09:27:20.436Z,15.7
2022-09-20T09:28:21.202Z,15.8
2022-09-20T09:29:23.072Z,15.9
2022-09-20T09:30:20.998Z,16
2022-09-20T09:31:22.303Z,16.1
2022-09-20T09:32:21.066Z,16.1
2022-09-20T09:33:21.781Z,16.4
2022-09-20T09:34:21.001Z,16.5
2022-09-20T09:35:22.395Z,16.9
2022-09-20T09:36:23.252Z,17.1
2022-09-20T09:37:28.579Z,17.1
2022-09-20T09:38:22.505Z,16.9
2022-09-20T09:39:21.131Z,16.3
2022-09-20T09:40:22.291Z,16.1
2022-09-20T09:41:22.333Z,16.1
2022-09-20T09:42:23.029Z,16
2022-09-20T09:43:22.517Z,15.5
2022-09-20T09:44:22.029Z,15
2022-09-20T09:45:21.413Z,14.9
2022-09-20T09:46:21.860Z,15
2022-09-20T09:47:21.654Z,15
2022-09-20T09:48:21.183Z,15.6
2022-09-20T09:49:21.187Z,16
2022-09-20T09:50:21.823Z,16.2
2022-09-20T09:51:21.606Z,16.7
2022-09-20T09:52:21.320Z,16.8
2022-09-20T09:54:21.321Z,17
2022-09-20T09:55:21.651Z,17.3
2022-09-20T09:56:21.773Z,17.6
2022-09-20T09:57:21.765Z,17.9
2022-09-20T09:58:21.893Z,17.4
2022-09-20T09:59:22.067Z,16.7
2022-09-20T10:00:22.606Z,16.6
2022-09-20T10:01:21.954Z,16.8
2022-09-20T10:02:21.905Z,17.4
2022-09-20T10:03:21.949Z,18.1
2022-09-20T10:04:21.915Z,18.7
2022-09-20T10:05:21.760Z,18.3
2022-09-20T10:06:21.989Z,17.7
2022-09-20T10:07:21.787Z,17.2
2022-09-20T10:08:22.069Z,16.9
2022-09-20T10:09:21.942Z,16.6
2022-09-20T10:10:22.062Z,16.6
2022-09-20T10:11:22.448Z,16.4
2022-09-20T10:12:26.964Z,16
2022-09-20T10:13:22.095Z,15.9
2022-09-20T10:14:22.152Z,16
2022-09-20T10:15:22.513Z,15.7
2022-09-20T10:16:22.132Z,15.3
2022-09-20T10:17:22.200Z,15.3
2022-09-20T10:18:22.171Z,15.1
2022-09-20T10:19:22.845Z,14.9
2022-09-20T10:20:22.217Z,14.7
2022-09-20T10:21:22.466Z,14.6
2022-09-20T10:22:22.553Z,14.7
2022-09-20T10:23:39.759Z,14.4
2022-09-20T10:24:22.831Z,14.4
2022-09-20T10:25:22.584Z,14.4
2022-09-20T10:26:22.769Z,14.2
2022-09-20T10:27:27.883Z,14.2
2022-09-20T10:28:23.262Z,14
2022-09-20T10:29:23.210Z,13.9
2022-09-20T10:30:23.802Z,13.9
2022-09-20T10:31:32.838Z,13.8
2022-09-20T10:32:23.267Z,13.7
2022-09-20T10:33:24.042Z,13.6
2022-09-20T10:34:23.271Z,13.8
2022-09-20T10:35:23.476Z,13.8
2022-09-20T10:36:23.382Z,13.6
2022-09-20T10:37:23.556Z,13.5
2022-09-20T10:38:23.325Z,13.4
2022-09-20T10:39:23.382Z,13.3
2022-09-20T10:40:23.954Z,13.3
2022-09-20T10:41:23.818Z,13.3
2022-09-20T10:42:24.622Z,13.1
2022-09-20T10:43:23.609Z,13
2022-09-20T10:44:23.806Z,13
2022-09-20T10:45:44.299Z,13
2022-09-20T10:46:32.904Z,13
2022-09-20T10:47:23.820Z,13
2022-09-20T10:48:23.843Z,13.1
2022-09-20T10:49:24.104Z,13.3
2022-09-20T10:50:24.227Z,13.3
2022-09-20T10:51:24.124Z,13.3
2022-09-20T10:52:30.304Z,13.2
2022-09-20T10:53:24.129Z,13.1
2022-09-20T10:54:32.367Z,13.2
2022-09-20T11:00:24.405Z,13.4
2022-09-20T11:01:24.460Z,13.6
2022-09-20T11:02:24.737Z,13.6
2022-09-20T11:03:25.424Z,13.7
2022-09-20T11:04:25.119Z,13.7
2022-09-20T11:05:24.802Z,13.7
2022-09-20T11:06:24.933Z,13.8
2022-09-20T11:07:29.533Z,13.7
2022-09-20T11:08:24.650Z,13.7
2022-09-20T11:09:25.664Z,13.7
2022-09-20T11:10:26.245Z,13.8
2022-09-20T11:11:24.859Z,13.8
2022-09-20T11:12:25.143Z,13.9
2022-09-20T11:13:25.145Z,13.8
2022-09-20T11:14:24.837Z,13.8
2022-09-20T11:15:25.182Z,13.8
2022-09-20T11:16:26.176Z,13.8
2022-09-20T11:17:25.726Z,13.9
2022-09-20T11:18:25.412Z,13.9
2022-09-20T11:19:25.295Z,14
2022-09-20T11:20:25.327Z,14.2
2022-09-20T11:21:25.460Z,14.2
2022-09-20T11:22:25.326Z,14.1
2022-09-20T11:23:26.350Z,14.1
2022-09-20T11:24:26.310Z,14.2
2022-09-20T11:25:29.413Z,14.2
2022-09-20T11:26:26.518Z,14.3
2022-09-20T11:27:30.574Z,14.4
2022-09-20T11:28:25.494Z,14.9
2022-09-20T11:29:26.188Z,15
2022-09-20T11:30:25.889Z,14.9
2022-09-20T11:31:25.656Z,15.2
2022-09-20T11:32:25.778Z,15.7
2022-09-20T11:33:25.697Z,16.1
2022-09-20T11:34:25.931Z,16.1
2022-09-20T11:35:26.273Z,16.3
2022-09-20T11:36:25.798Z,16.7
2022-09-20T11:37:26.294Z,16.7
2022-09-20T11:38:27.549Z,16.9
2022-09-20T11:39:26.837Z,16.8
2022-09-20T11:40:27.111Z,16.4
2022-09-20T11:41:26.443Z,15.9
2022-09-20T11:42:26.884Z,15.8
2022-09-20T11:43:26.547Z,15.7
2022-09-20T11:44:26.511Z,15.5
2022-09-20T11:45:28.526Z,15.3
2022-09-20T11:46:26.422Z,15.4
2022-09-20T11:47:50.295Z,15.2
2022-09-20T11:48:26.543Z,15.1
2022-09-20T11:49:26.648Z,15.2
2022-09-20T11:50:26.656Z,15.1
2022-09-20T11:51:26.815Z,15.1
2022-09-20T11:52:32.110Z,15.2
2022-09-20T11:53:26.751Z,15.4
2022-09-20T11:54:26.778Z,15.4
2022-09-20T11:55:33.282Z,15.6
2022-09-20T11:56:27.983Z,15.7
2022-09-20T11:57:26.908Z,15.8
2022-09-20T11:58:36.925Z,15.6
2022-09-20T11:59:28.031Z,15.6
2022-09-20T12:00:27.568Z,15.6
2022-09-20T12:01:28.403Z,15.7
2022-09-20T12:02:27.171Z,15.7
2022-09-20T12:03:27.396Z,15.6
2022-09-20T12:04:32.649Z,15.4
2022-09-20T12:05:27.691Z,15.5
2022-09-20T12:06:27.218Z,15.5
2022-09-20T12:07:27.539Z,15.4
2022-09-20T12:08:27.267Z,15.3
2022-09-20T12:09:27.288Z,15.4
2022-09-20T12:10:29.070Z,15.2
2022-09-20T12:11:27.471Z,15.1
2022-09-20T12:12:27.419Z,15
2022-09-20T12:13:28.114Z,14.8
2022-09-20T12:14:27.544Z,14.8
2022-09-20T12:16:14.975Z,14.7
2022-09-20T12:17:32.579Z,14.7
2022-09-20T12:18:12.269Z,14.6
2022-09-20T12:18:33.648Z,14.7
2022-09-20T12:19:27.693Z,14.9
2022-09-20T12:20:46.579Z,15.1
2022-09-20T12:22:36.654Z,15.1
2022-09-20T12:24:22.640Z,14.9
2022-09-20T12:25:48.436Z,14.9
2022-09-20T12:28:14.522Z,14.9
2022-09-20T12:29:51.537Z,15
2022-09-20T12:30:00.849Z,14.8
2022-09-20T12:31:13.081Z,14.8
2022-09-20T12:32:38.759Z,14.8
2022-09-20T12:32:57.801Z,14.7
2022-09-20T12:33:42.584Z,14.7
2022-09-20T12:36:09.492Z,15.2
2022-09-20T12:36:38.367Z,14.9
2022-09-20T12:38:30.078Z,16.1
2022-09-20T12:38:34.640Z,16.3
2022-09-20T12:39:50.861Z,16.6
2022-09-20T12:40:33.661Z,16.5
2022-09-20T12:41:29.207Z,16.9
2022-09-20T12:43:36.039Z,16.7
2022-09-20T12:44:29.808Z,16.3
2022-09-20T12:45:29.910Z,15.9
2022-09-20T12:49:45.444Z,15.3
2022-09-20T12:49:56.573Z,15.3
2022-09-20T12:52:35.829Z,14.8
2022-09-20T12:52:38.241Z,14.8
2022-09-20T12:55:03.876Z,15
2022-09-20T12:56:30.886Z,14.9
2022-09-20T12:56:58.476Z,14.9
2022-09-20T12:59:02.338Z,15
2022-09-20T13:00:04.534Z,14.8
2022-09-20T13:02:03.605Z,15
2022-09-20T13:02:08.486Z,15
2022-09-20T13:03:06.932Z,15
2022-09-20T13:05:26.595Z,15.1
2022-09-20T13:05:41.938Z,15.1
2022-09-20T13:05:41.943Z,15.1
2022-09-20T13:06:29.649Z,15.2
2022-09-20T13:07:31.551Z,15
2022-09-20T13:08:30.145Z,14.9
2022-09-20T13:09:30.260Z,14.9
2022-09-20T13:10:30.039Z,15
2022-09-20T13:11:30.124Z,15.6
2022-09-20T13:12:30.140Z,16.2
2022-09-20T13:13:30.355Z,16.7
2022-09-20T13:14:29.989Z,16.9
2022-09-20T13:15:30.227Z,17
2022-09-20T13:16:30.107Z,17.1
2022-09-20T13:17:30.123Z,17.1
2022-09-20T13:18:30.287Z,17.3
2022-09-20T13:19:30.214Z,17.5
2022-09-20T13:20:30.567Z,17.3
2022-09-20T13:21:30.238Z,17.7
2022-09-20T13:22:30.245Z,17.9
2022-09-20T13:23:30.517Z,17.9
2022-09-20T13:24:30.375Z,18.2
2022-09-20T13:25:30.385Z,18.4
2022-09-20T13:26:30.398Z,18.4
2022-09-20T13:27:30.445Z,18.3
2022-09-20T13:28:30.437Z,18.3
2022-09-20T13:29:30.751Z,18.3
2022-09-20T13:30:30.544Z,18.3
2022-09-20T13:31:30.660Z,18.2
2022-09-20T13:32:30.671Z,18.1
2022-09-20T13:33:30.655Z,18.2
2022-09-20T13:34:30.664Z,18.1
2022-09-20T13:35:30.694Z,18
2022-09-20T13:36:30.758Z,17.6
2022-09-20T13:37:30.961Z,17.3
2022-09-20T13:38:30.817Z,17.4
2022-09-20T13:39:30.837Z,17.7
2022-09-20T13:40:31.103Z,17.8
2022-09-20T13:41:31.061Z,18.3
2022-09-20T13:42:31.736Z,18.4
2022-09-20T13:43:31.233Z,18.4
2022-09-20T13:44:31.041Z,18.1
2022-09-20T13:45:33.924Z,18
2022-09-20T13:46:31.126Z,17.7
2022-09-20T13:47:31.130Z,17.5